Time;durP1;ratioP1;P1;durP2;ratioP2;P2;SDS_P1;SDS_P2;PMS_P1;PMS_P2;Temp;Humidity;BMP_temperature;BMP_pressure;BME280_temperature;BME280_humidity;BME280_pressure;Samples;Min_cycle;Max_cycle;Signal;HPM_P1;HPM_P2
2023/10/20 00:01:27;;;;;;;15.15;12.73;;;;;;;13.37;66.16;94203.50;4206479;28;20147;-71
2023/10/20 00:03:29;;;;;;;18.15;13.32;;;;;;;13.36;66.39;94205.31;4212226;28;20093;-70
2023/10/20 00:05:33;;;;;;;15.57;13.47;;;;;;;13.37;65.85;94196.41;4195520;28;20132;-72
2023/10/20 00:07:36;;;;;;;15.23;12.65;;;;;;;13.37;65.92;94183.25;4211503;28;20070;-70
2023/10/20 00:09:38;;;;;;;16.17;11.80;;;;;;;13.35;65.85;94182.63;4211441;28;20056;-71
2023/10/20 00:11:45;;;;;;;15.57;12.45;;;;;;;13.36;66.04;94181.63;4195790;28;20045;-70
2023/10/20 00:13:48;;;;;;;15.52;12.32;;;;;;;13.39;65.69;94167.28;4202935;28;20451;-71
2023/10/20 00:15:50;;;;;;;16.30;11.98;;;;;;;13.36;65.91;94179.00;4190660;28;20559;-71
2023/10/20 00:17:52;;;;;;;13.35;11.68;;;;;;;13.34;65.59;94170.50;4212782;28;20109;-69
2023/10/20 00:19:56;;;;;;;14.90;12.60;;;;;;;13.21;66.32;94179.03;4195131;28;20083;-70
2023/10/20 00:21:58;;;;;;;13.23;11.88;;;;;;;13.18;66.72;94179.41;4213213;28;20071;-70
2023/10/20 00:24:00;;;;;;;18.75;12.48;;;;;;;13.09;67.00;94176.06;4208116;28;20044;-70
2023/10/20 00:26:02;;;;;;;15.57;12.63;;;;;;;12.95;67.48;94170.88;4210217;28;20523;-72
2023/10/20 00:28:04;;;;;;;15.32;12.40;;;;;;;12.88;67.77;94166.38;4203433;28;20511;-71
2023/10/20 00:30:09;;;;;;;15.75;13.00;;;;;;;12.75;68.72;94166.22;4185511;28;20056;-71
2023/10/20 00:32:12;;;;;;;16.38;13.18;;;;;;;12.82;68.26;94171.53;4179066;28;20129;-70
2023/10/20 00:34:15;;;;;;;14.02;12.18;;;;;;;12.84;67.98;94161.66;4193936;28;20550;-70
2023/10/20 00:36:17;;;;;;;17.42;12.60;;;;;;;12.92;67.84;94156.28;4184130;28;20040;-72
2023/10/20 00:38:20;;;;;;;15.57;12.68;;;;;;;12.98;67.35;94160.00;4199956;28;20062;-69
2023/10/20 00:40:22;;;;;;;14.02;12.40;;;;;;;13.01;67.62;94155.16;4202998;28;20075;-72
2023/10/20 00:42:24;;;;;;;15.43;12.35;;;;;;;13.04;66.98;94156.63;4195262;28;20061;-71
2023/10/20 00:44:28;;;;;;;13.93;12.35;;;;;;;13.05;67.19;94147.72;4212297;28;20052;-70
2023/10/20 00:46:30;;;;;;;16.42;11.95;;;;;;;13.08;66.73;94156.06;4179288;28;20501;-70
2023/10/20 00:48:33;;;;;;;15.73;11.70;;;;;;;13.05;66.53;94148.53;4211209;28;20056;-70
2023/10/20 00:50:35;;;;;;;14.65;12.00;;;;;;;13.04;66.92;94154.00;4212673;28;20047;-70
2023/10/20 00:52:38;;;;;;;13.93;11.57;;;;;;;12.96;67.31;94146.22;4207988;28;20506;-70
2023/10/20 00:54:44;;;;;;;14.75;11.82;;;;;;;12.94;67.69;94156.09;4206720;28;20478;-71
2023/10/20 00:56:47;;;;;;;12.68;11.32;;;;;;;12.96;67.40;94162.81;4199407;28;20072;-69
2023/10/20 00:58:49;;;;;;;16.88;12.07;;;;;;;12.86;67.39;94155.22;4196343;28;20139;-68
2023/10/20 01:00:52;;;;;;;14.95;12.70;;;;;;;12.58;68.53;94159.53;4180365;28;20049;-71
2023/10/20 01:02:54;;;;;;;16.27;12.32;;;;;;;12.55;68.91;94165.19;4194730;28;20082;-69
2023/10/20 01:04:59;;;;;;;15.20;12.32;;;;;;;12.60;69.00;94160.19;4187569;28;20061;-68
2023/10/20 01:07:01;;;;;;;14.40;11.95;;;;;;;12.65;68.57;94152.56;4202895;28;20054;-70
2023/10/20 01:09:03;;;;;;;15.05;11.82;;;;;;;12.69;68.18;94145.91;4207332;28;20040;-71
2023/10/20 01:11:08;;;;;;;13.98;11.95;;;;;;;12.72;68.07;94150.00;4209450;28;20044;-69
2023/10/20 01:13:10;;;;;;;15.50;11.45;;;;;;;12.78;68.13;94154.53;4208876;28;20059;-71
2023/10/20 01:15:16;;;;;;;16.27;12.40;;;;;;;12.79;67.97;94146.44;4205931;28;20442;-68
2023/10/20 01:17:18;;;;;;;15.05;12.27;;;;;;;12.83;67.82;94150.34;4170795;28;20049;-69
2023/10/20 01:19:20;;;;;;;14.85;11.75;;;;;;;12.83;67.82;94146.91;4194411;28;20052;-68
2023/10/20 01:21:21;;;;;;;13.93;11.20;;;;;;;12.81;67.94;94138.38;4211454;28;20048;-69
2023/10/20 01:23:25;;;;;;;12.95;11.52;;;;;;;12.81;67.60;94141.81;4211911;28;20051;-70
2023/10/20 01:25:28;;;;;;;16.85;11.88;;;;;;;12.84;67.46;94141.47;4211703;28;20044;-69
2023/10/20 01:27:30;;;;;;;13.38;11.63;;;;;;;12.84;67.56;94138.00;4209600;28;20053;-70
2023/10/20 01:29:32;;;;;;;16.05;11.63;;;;;;;12.83;67.34;94133.75;4209064;28;20048;-69
2023/10/20 01:31:35;;;;;;;14.02;11.93;;;;;;;12.79;67.65;94130.66;4194677;28;20409;-69
2023/10/20 01:33:37;;;;;;;14.20;11.73;;;;;;;12.76;67.85;94136.31;4182835;28;20564;-71
2023/10/20 01:35:39;;;;;;;13.40;11.25;;;;;;;12.75;67.55;94132.03;4189498;28;20045;-70
2023/10/20 01:37:42;;;;;;;12.98;11.55;;;;;;;12.73;67.96;94117.47;4188615;28;20139;-70
2023/10/20 01:39:44;;;;;;;17.33;11.40;;;;;;;12.69;67.96;94123.09;4208929;28;20435;-70
2023/10/20 01:41:47;;;;;;;13.68;10.65;;;;;;;12.67;68.28;94119.84;4211674;28;20056;-69
2023/10/20 01:43:48;;;;;;;13.00;11.60;;;;;;;12.66;68.03;94110.31;4187412;28;20061;-70
2023/10/20 01:45:51;;;;;;;12.88;11.13;;;;;;;12.67;68.25;94109.34;4181743;28;20040;-69
2023/10/20 01:47:58;;;;;;;14.35;11.88;;;;;;;12.65;68.19;94106.06;4210744;28;20062;-70
2023/10/20 01:50:00;;;;;;;12.10;10.90;;;;;;;12.60;68.30;94113.69;4184371;28;20136;-70
2023/10/20 01:52:02;;;;;;;12.90;10.43;;;;;;;12.62;68.17;94114.31;4177210;28;20049;-70
2023/10/20 01:54:06;;;;;;;14.30;11.10;;;;;;;12.63;68.04;94115.97;4211947;28;20055;-70
2023/10/20 01:56:08;;;;;;;12.43;11.13;;;;;;;12.63;68.32;94115.16;4193565;28;20067;-69
2023/10/20 01:58:10;;;;;;;13.65;11.20;;;;;;;12.52;68.52;94119.06;4210572;28;20093;-69
2023/10/20 02:00:16;;;;;;;13.55;11.57;;;;;;;12.39;68.54;94119.75;4209840;28;20483;-70
2023/10/20 02:02:19;;;;;;;14.52;11.88;;;;;;;12.36;69.08;94129.78;4212631;28;20048;-69
2023/10/20 02:04:21;;;;;;;11.77;10.57;;;;;;;12.37;69.31;94134.03;4209820;28;20083;-69
2023/10/20 02:06:23;;;;;;;14.30;11.25;;;;;;;12.37;69.15;94134.03;4202565;28;20044;-69
2023/10/20 02:08:26;;;;;;;12.68;11.02;;;;;;;12.41;68.76;94133.50;4209738;28;20075;-70
2023/10/20 02:10:28;;;;;;;16.60;11.10;;;;;;;12.38;69.01;94136.47;4194151;28;20485;-69
2023/10/20 02:12:30;;;;;;;14.38;12.00;;;;;;;12.35;69.23;94133.44;4209522;28;20079;-70
2023/10/20 02:14:33;;;;;;;12.63;10.88;;;;;;;12.32;69.21;94133.78;4201364;28;20571;-68
2023/10/20 02:16:35;;;;;;;12.70;10.98;;;;;;;12.33;69.15;94127.53;4208229;28;20541;-69
2023/10/20 02:18:39;;;;;;;14.77;11.80;;;;;;;12.37;68.86;94116.47;4210722;28;20074;-70
2023/10/20 02:20:42;;;;;;;15.60;11.32;;;;;;;12.41;68.99;94106.41;4170299;28;20087;-68
2023/10/20 02:22:45;;;;;;;14.23;11.10;;;;;;;12.44;68.88;94106.03;4211830;28;20047;-70
2023/10/20 02:24:49;;;;;;;13.80;11.20;;;;;;;12.42;68.66;94113.28;4176166;28;20045;-70
2023/10/20 02:26:51;;;;;;;15.68;11.95;;;;;;;12.42;68.57;94123.81;4198978;28;20136;-69
2023/10/20 02:28:53;;;;;;;15.45;12.85;;;;;;;12.18;69.26;94136.25;4175107;28;20056;-70
2023/10/20 02:30:58;;;;;;;19.23;13.57;;;;;;;11.62;70.72;94128.78;4211911;28;20116;-71
2023/10/20 02:33:02;;;;;;;19.17;14.93;;;;;;;11.18;72.62;94131.31;4185282;28;20053;-70
2023/10/20 02:35:07;;;;;;;16.42;13.48;;;;;;;11.07;73.12;94135.16;4213728;28;20044;-70
2023/10/20 02:37:12;;;;;;;15.10;13.48;;;;;;;11.05;73.76;94129.28;4213212;28;20080;-69
2023/10/20 02:39:15;;;;;;;14.73;13.23;;;;;;;11.23;73.96;94134.22;4208670;28;20048;-71
2023/10/20 02:41:16;;;;;;;15.60;13.82;;;;;;;11.38;72.95;94129.84;4196854;28;20554;-69
2023/10/20 02:43:18;;;;;;;16.90;13.35;;;;;;;11.53;71.67;94129.84;4213311;28;20048;-70
2023/10/20 02:45:22;;;;;;;14.90;12.77;;;;;;;11.64;71.33;94131.22;4213882;28;20555;-69
2023/10/20 02:47:23;;;;;;;14.98;11.75;;;;;;;11.75;71.39;94125.53;4197163;28;20075;-70
2023/10/20 02:49:26;;;;;;;14.70;12.10;;;;;;;11.79;70.96;94124.19;4195649;28;20052;-69
2023/10/20 02:51:28;;;;;;;17.05;13.20;;;;;;;11.83;70.79;94129.88;4184627;28;20051;-70
2023/10/20 02:53:31;;;;;;;14.52;12.60;;;;;;;11.92;70.56;94133.28;4215023;28;20555;-68
2023/10/20 02:55:33;;;;;;;14.25;12.75;;;;;;;11.92;70.10;94128.03;4214868;28;20423;-69
2023/10/20 02:57:36;;;;;;;13.65;12.25;;;;;;;11.98;70.07;94122.03;4213576;28;20048;-70
2023/10/20 02:59:38;;;;;;;14.45;12.77;;;;;;;12.01;70.35;94125.13;4211772;28;20059;-71
2023/10/20 03:01:40;;;;;;;17.95;12.63;;;;;;;12.02;70.13;94118.88;4196532;28;20102;-69
2023/10/20 03:03:44;;;;;;;15.37;12.50;;;;;;;12.07;69.87;94120.97;4212594;28;20101;-70
2023/10/20 03:05:46;;;;;;;14.67;12.47;;;;;;;12.04;69.13;94118.69;4196147;28;20285;-70
2023/10/20 03:07:48;;;;;;;14.45;12.63;;;;;;;12.06;69.29;94114.88;4214393;28;20504;-68
2023/10/20 03:09:55;;;;;;;16.33;13.27;;;;;;;12.09;69.35;94108.47;4212222;28;20060;-70
2023/10/20 03:11:59;;;;;;;13.80;12.38;;;;;;;12.07;69.52;94107.84;4196605;28;20048;-69
2023/10/20 03:14:01;;;;;;;14.75;11.52;;;;;;;12.08;69.86;94110.25;4193823;28;20056;-69
2023/10/20 03:16:05;;;;;;;21.77;13.43;;;;;;;12.08;69.71;94118.13;4210285;28;20364;-69
2023/10/20 03:18:13;;;;;;;18.90;12.38;;;;;;;12.09;69.66;94116.34;4207216;28;20389;-70
2023/10/20 03:20:17;;;;;;;15.65;12.20;;;;;;;11.90;69.97;94111.66;4210314;28;20510;-71
2023/10/20 03:22:19;;;;;;;14.27;12.32;;;;;;;11.87;70.47;94113.59;4197289;28;20114;-67
2023/10/20 03:24:22;;;;;;;17.17;12.65;;;;;;;11.91;70.67;94111.44;4194686;28;20052;-70
2023/10/20 03:26:24;;;;;;;15.05;12.52;;;;;;;11.92;70.16;94109.66;4214015;28;20075;-68
2023/10/20 03:28:26;;;;;;;15.20;12.82;;;;;;;11.94;69.87;94103.22;4213292;28;20474;-70
2023/10/20 03:30:29;;;;;;;16.00;12.20;;;;;;;11.99;69.97;94105.28;4203721;28;20505;-71
2023/10/20 03:32:35;;;;;;;14.85;12.43;;;;;;;12.03;69.76;94102.13;4213463;28;20082;-70
2023/10/20 03:34:37;;;;;;;16.08;12.23;;;;;;;12.05;69.58;94112.44;4214095;28;20054;-71
2023/10/20 03:36:39;;;;;;;15.30;12.55;;;;;;;12.05;69.75;94113.25;4213163;28;20195;-72
2023/10/20 03:38:42;;;;;;;15.93;11.35;;;;;;;12.07;69.50;94103.38;4175051;28;20080;-68
2023/10/20 03:40:46;;;;;;;13.00;11.63;;;;;;;12.11;69.58;94105.63;4213679;28;20089;-68
2023/10/20 03:42:48;;;;;;;24.95;14.07;;;;;;;11.87;69.53;94103.09;4214142;28;20052;-70
2023/10/20 03:44:51;;;;;;;17.70;14.80;;;;;;;11.77;70.42;94101.75;4211987;28;20055;-68
2023/10/20 03:46:56;;;;;;;18.40;13.95;;;;;;;11.76;70.41;94100.91;4195498;28;20041;-69
2023/10/20 03:48:58;;;;;;;18.73;13.98;;;;;;;11.73;70.42;94103.09;4176850;28;20132;-69
2023/10/20 03:51:04;;;;;;;17.10;13.57;;;;;;;11.61;70.60;94095.66;4192446;28;20509;-69
2023/10/20 03:53:06;;;;;;;16.55;13.38;;;;;;;11.60;71.07;94090.59;4189421;28;20203;-69
2023/10/20 03:55:13;;;;;;;15.68;13.48;;;;;;;11.66;70.63;94087.28;4194715;28;20056;-69
2023/10/20 03:57:15;;;;;;;17.35;13.63;;;;;;;11.68;70.67;94080.84;4203581;28;20048;-68
2023/10/20 03:59:17;;;;;;;18.75;13.73;;;;;;;11.58;70.77;94079.47;4174448;28;20520;-70
2023/10/20 04:01:21;;;;;;;15.93;13.50;;;;;;;11.56;71.01;94073.59;4213553;28;20044;-69
2023/10/20 04:03:25;;;;;;;18.30;13.80;;;;;;;11.44;70.89;94088.94;4189519;28;20521;-72
2023/10/20 04:05:27;;;;;;;20.00;14.40;;;;;;;11.30;71.44;94082.69;4214006;28;20135;-70
2023/10/20 04:07:30;;;;;;;17.70;12.95;;;;;;;11.18;71.58;94078.88;4213806;28;20046;-73
2023/10/20 04:09:33;;;;;;;23.13;15.68;;;;;;;10.93;72.52;94086.97;4189012;28;20061;-73
2023/10/20 04:11:36;;;;;;;26.55;15.13;;;;;;;10.95;73.52;94077.13;4210016;28;20071;-72
2023/10/20 04:13:38;;;;;;;20.63;14.60;;;;;;;11.02;73.30;94085.09;4194496;28;20060;-73
2023/10/20 04:15:42;;;;;;;19.80;13.80;;;;;;;11.11;72.66;94077.97;4213590;28;20055;-71
2023/10/20 04:17:51;;;;;;;16.73;14.10;;;;;;;11.05;72.68;94080.28;4209987;28;20040;-71
2023/10/20 04:19:54;;;;;;;20.35;13.88;;;;;;;11.14;73.02;94093.31;4195423;28;20053;-70
2023/10/20 04:21:58;;;;;;;18.98;13.88;;;;;;;11.25;72.83;94095.53;4213467;28;20052;-71
2023/10/20 04:23:59;;;;;;;25.33;15.57;;;;;;;11.07;72.25;94107.13;4207814;28;20127;-71
2023/10/20 04:26:04;;;;;;;19.00;15.40;;;;;;;11.10;72.88;94107.78;4211953;28;20443;-71
2023/10/20 04:59:43;;;;;;;20.55;16.17;;;;;;;11.64;70.61;94099.75;4208608;28;20048;-73
2023/10/20 05:01:47;;;;;;;23.23;15.65;;;;;;;11.66;70.22;94095.13;4195093;28;20079;-72
2023/10/20 05:04:09;;;;;;;23.83;16.42;;;;;;;11.69;70.22;94092.94;4187682;28;20049;-72
2023/10/20 05:06:26;;;;;;;18.70;14.48;;;;;;;11.75;69.49;94091.41;4202491;28;20051;-73
2023/10/20 05:08:28;;;;;;;17.40;15.48;;;;;;;11.73;69.65;94098.66;4212118;28;20047;-72
2023/10/20 05:10:31;;;;;;;21.00;16.73;;;;;;;11.76;69.94;94094.84;4195130;28;20048;-71
2023/10/20 05:12:34;;;;;;;20.13;14.80;;;;;;;11.79;70.16;94108.44;4207969;28;20119;-73
2023/10/20 05:14:37;;;;;;;23.42;16.60;;;;;;;11.85;70.16;94112.97;4207247;28;20048;-71
2023/10/20 05:16:39;;;;;;;23.05;16.08;;;;;;;11.90;69.97;94106.41;4210306;28;20044;-71
2023/10/20 05:18:42;;;;;;;23.58;17.08;;;;;;;11.97;69.92;94104.66;4194677;28;20053;-72
2023/10/20 05:20:46;;;;;;;26.10;16.58;;;;;;;12.08;69.59;94099.75;4191096;28;20084;-71
2023/10/20 05:22:48;;;;;;;25.80;15.98;;;;;;;12.23;69.00;94099.72;4194388;28;20536;-72
2023/10/20 05:24:51;;;;;;;28.40;14.68;;;;;;;12.23;68.81;94110.25;4212826;28;20048;-72
2023/10/20 05:26:53;;;;;;;25.00;14.68;;;;;;;12.28;68.91;94122.81;4189138;28;20071;-71
2023/10/20 05:28:56;;;;;;;24.52;15.25;;;;;;;12.29;68.81;94125.25;4191431;28;20067;-73
2023/10/20 05:30:58;;;;;;;26.77;15.95;;;;;;;12.06;69.11;94135.06;4209579;28;20055;-73
2023/10/20 05:33:01;;;;;;;28.42;16.08;;;;;;;11.78;70.10;94138.28;4204535;28;20119;-73
2023/10/20 05:35:04;;;;;;;25.75;16.77;;;;;;;11.68;70.75;94137.75;4205142;28;20055;-72
2023/10/20 05:37:06;;;;;;;22.98;16.88;;;;;;;11.75;71.17;94140.47;4211835;28;20036;-74
2023/10/20 05:39:09;;;;;;;29.00;17.30;;;;;;;11.85;70.75;94141.84;4211833;28;20083;-72
2023/10/20 05:41:17;;;;;;;26.80;17.83;;;;;;;11.83;70.39;94149.06;4196437;28;20053;-71
2023/10/20 05:43:19;;;;;;;28.45;17.92;;;;;;;11.93;70.32;94148.81;4210806;28;20056;-73
2023/10/20 05:45:21;;;;;;;24.05;17.25;;;;;;;12.05;69.84;94146.56;4201940;28;20468;-72
2023/10/20 05:47:23;;;;;;;23.92;17.02;;;;;;;12.17;69.15;94139.84;4192612;28;20044;-71
2023/10/20 05:49:28;;;;;;;24.30;17.30;;;;;;;12.31;68.87;94140.03;4211973;28;20051;-71
2023/10/20 05:51:30;;;;;;;23.65;17.73;;;;;;;12.39;68.26;94138.13;4194373;28;20044;-73
2023/10/20 05:53:32;;;;;;;21.58;17.73;;;;;;;12.48;68.14;94137.00;4194589;28;20512;-73
2023/10/20 05:55:35;;;;;;;25.95;17.33;;;;;;;12.62;67.91;94135.34;4189722;28;20444;-73
2023/10/20 05:57:38;;;;;;;23.08;16.55;;;;;;;12.78;67.74;94129.06;4197492;28;20052;-73
2023/10/20 05:59:42;;;;;;;23.73;16.73;;;;;;;12.90;66.96;94122.28;4211136;28;20059;-73
2023/10/20 06:01:49;;;;;;;22.52;17.55;;;;;;;13.01;66.67;94120.16;4212905;28;20043;-74
2023/10/20 06:03:51;;;;;;;24.98;18.27;;;;;;;13.15;66.51;94129.00;4194705;28;20444;-71
2023/10/20 06:05:58;;;;;;;29.65;17.85;;;;;;;13.30;66.19;94135.03;4192042;28;20484;-73
2023/10/20 06:08:00;;;;;;;29.50;16.73;;;;;;;13.37;65.47;94138.53;4189001;28;20044;-74
2023/10/20 06:10:03;;;;;;;25.00;16.52;;;;;;;13.44;65.32;94141.22;4213231;28;20086;-73
2023/10/20 06:12:07;;;;;;;30.42;16.77;;;;;;;13.53;65.09;94134.81;4215833;28;20528;-74
2023/10/20 06:14:10;;;;;;;24.63;16.40;;;;;;;13.67;64.81;94133.09;4214899;28;20048;-73
2023/10/20 06:16:12;;;;;;;24.05;17.02;;;;;;;13.76;64.57;94137.19;4194864;28;20457;-72
2023/10/20 06:18:15;;;;;;;23.10;16.17;;;;;;;13.85;64.08;94141.34;4196650;28;20047;-72
2023/10/20 06:20:38;;;;;;;21.42;15.45;;;;;;;13.93;63.75;94141.16;4199590;28;20044;-73
2023/10/20 06:22:42;;;;;;;19.10;16.73;;;;;;;13.96;64.01;94141.78;4214455;28;20048;-73
2023/10/20 06:24:45;;;;;;;23.48;16.65;;;;;;;14.09;63.88;94141.88;4197157;28;20529;-73
2023/10/20 06:26:47;;;;;;;18.50;15.50;;;;;;;14.21;63.98;94142.94;4197930;28;20056;-73
2023/10/20 06:28:50;;;;;;;22.23;15.95;;;;;;;14.31;63.44;94143.41;4214426;28;20463;-74
2023/10/20 06:30:57;;;;;;;22.10;16.00;;;;;;;14.42;63.05;94135.94;4203058;28;20060;-72
2023/10/20 06:35:17;;;;;;;25.35;15.68;;;;;;;14.62;62.57;94133.41;4200429;28;20618;-73
2023/10/20 06:39:41;;;;;;;25.42;16.45;;;;;;;14.89;62.06;94123.78;4197849;28;20052;-74
2023/10/20 06:41:43;;;;;;;23.55;16.55;;;;;;;14.94;62.32;94118.69;4214754;28;20139;-73
2023/10/20 06:43:47;;;;;;;17.95;15.05;;;;;;;15.02;61.82;94129.06;4214342;28;20047;-73
2023/10/20 06:45:59;;;;;;;;;;;;;;;15.09;61.40;94127.25;4206419;28;20063;-73
2023/10/20 06:48:01;;;;;;;27.38;15.73;;;;;;;15.09;61.74;94131.72;4213268;28;19952;-72
2023/10/20 06:50:04;;;;;;;21.20;14.98;;;;;;;15.16;61.75;94135.16;4215210;28;20055;-70
2023/10/20 06:52:06;;;;;;;21.95;14.02;;;;;;;15.24;61.76;94134.16;4197522;28;20411;-72
2023/10/20 06:54:10;;;;;;;23.30;14.73;;;;;;;15.29;61.05;94143.13;4196009;28;20055;-73
2023/10/20 06:56:12;;;;;;;18.42;13.88;;;;;;;15.26;61.14;94143.50;4211896;28;20458;-73
2023/10/20 06:58:19;;;;;;;20.33;14.02;;;;;;;15.27;61.23;94139.88;4189340;28;20049;-75
2023/10/20 07:00:21;;;;;;;19.98;13.70;;;;;;;15.38;61.13;94135.81;4158050;28;20057;-74
2023/10/20 07:02:24;;;;;;;25.15;13.80;;;;;;;15.44;60.97;94142.91;4196846;28;20071;-75
2023/10/20 07:04:31;;;;;;;21.63;14.73;;;;;;;15.49;60.78;94140.47;4215270;28;20044;-74
2023/10/20 07:06:37;;;;;;;18.67;13.50;;;;;;;15.50;60.63;94144.72;4215109;28;20043;-72
2023/10/20 07:08:50;;;;;;;21.23;14.38;;;;;;;15.49;60.70;94140.47;4182474;28;20059;-74
2023/10/20 07:10:53;;;;;;;23.75;15.25;;;;;;;15.60;60.87;94146.19;4209449;28;20056;-72
2023/10/20 07:12:55;;;;;;;24.30;14.75;;;;;;;15.72;60.56;94136.63;4215252;28;20089;-72
2023/10/20 07:14:58;;;;;;;18.67;14.50;;;;;;;15.84;60.19;94137.66;4212153;28;20056;-74
2023/10/20 07:17:06;;;;;;;27.17;21.08;;;;;;;15.80;60.22;94143.56;4213305;28;20103;-73
2023/10/20 07:19:10;;;;;;;30.52;24.17;;;;;;;15.75;60.66;94141.53;4210143;28;20056;-73
2023/10/20 07:21:14;;;;;;;23.85;19.02;;;;;;;15.75;60.46;94131.78;4211490;28;20318;-73
2023/10/20 07:23:18;;;;;;;22.35;14.57;;;;;;;15.65;60.67;94135.81;4214631;28;20063;-72
2023/10/20 07:25:19;;;;;;;25.35;16.90;;;;;;;15.66;60.93;94137.41;4196942;28;20048;-72
2023/10/20 07:27:22;;;;;;;24.10;14.98;;;;;;;15.66;60.85;94137.41;4214015;28;20055;-74
2023/10/20 07:29:25;;;;;;;22.40;14.57;;;;;;;15.55;61.23;94137.03;4213543;28;20070;-74
2023/10/20 07:31:27;;;;;;;21.52;15.90;;;;;;;15.56;61.31;94137.84;4190912;28;20056;-73
2023/10/20 07:33:31;;;;;;;25.48;17.77;;;;;;;15.59;61.19;94141.91;4205655;28;20052;-72
2023/10/20 07:35:37;;;;;;;25.00;17.13;;;;;;;15.57;61.03;94142.94;4176310;28;20264;-74
2023/10/20 07:37:39;;;;;;;33.08;18.55;;;;;;;15.42;61.54;94152.03;4190014;28;20109;-74
2023/10/20 07:39:41;;;;;;;22.52;16.25;;;;;;;15.39;61.65;94155.91;4214011;28;20051;-74
2023/10/20 07:41:46;;;;;;;24.17;16.58;;;;;;;15.53;61.67;94154.91;4213653;28;20561;-74
2023/10/20 07:43:48;;;;;;;23.92;16.52;;;;;;;15.59;61.48;94147.19;4210537;28;20140;-73
2023/10/20 07:45:50;;;;;;;20.17;15.63;;;;;;;15.58;61.11;94146.38;4191859;28;20072;-73
2023/10/20 07:47:52;;;;;;;23.83;16.08;;;;;;;15.68;61.38;94145.94;4195749;28;20619;-73
2023/10/20 07:49:57;;;;;;;25.30;15.38;;;;;;;15.77;61.15;94145.59;4184455;28;20468;-74
2023/10/20 07:52:04;;;;;;;22.05;15.80;;;;;;;15.79;60.96;94142.75;4197060;28;20770;-72
2023/10/20 07:54:08;;;;;;;17.70;13.95;;;;;;;15.75;60.96;94152.09;4178467;28;20568;-72
2023/10/20 07:56:12;;;;;;;24.15;14.65;;;;;;;15.49;61.79;94148.41;4209312;28;20080;-73
2023/10/20 07:58:15;;;;;;;17.83;12.40;;;;;;;15.49;61.67;94153.69;4195664;28;20059;-72
2023/10/20 08:00:18;;;;;;;19.83;12.88;;;;;;;15.73;61.54;94148.84;4212874;28;20134;-73
2023/10/20 08:02:23;;;;;;;20.75;13.38;;;;;;;15.96;60.82;94154.50;4188977;28;20528;-72
2023/10/20 08:04:26;;;;;;;20.98;13.75;;;;;;;16.26;60.20;94150.56;4183993;28;20053;-72
2023/10/20 08:06:30;;;;;;;16.98;12.45;;;;;;;16.53;59.50;94143.38;4208857;28;20052;-74
2023/10/20 08:08:33;;;;;;;20.45;13.68;;;;;;;16.73;58.82;94138.00;4195294;28;20045;-74
2023/10/20 08:10:36;;;;;;;14.75;10.90;;;;;;;16.89;58.04;94137.56;4194018;28;20063;-73
2023/10/20 08:12:39;;;;;;;12.70;9.90;;;;;;;16.91;57.59;94135.50;4211469;28;20048;-74
2023/10/20 08:14:41;;;;;;;18.58;11.25;;;;;;;16.99;57.71;94126.50;4200153;28;20094;-73
2023/10/20 08:16:43;;;;;;;13.00;10.90;;;;;;;17.04;56.94;94131.19;4208141;28;20048;-74
2023/10/20 08:18:45;;;;;;;20.30;11.60;;;;;;;17.09;57.46;94141.94;4195464;28;20114;-74
2023/10/20 08:20:47;;;;;;;20.23;11.32;;;;;;;17.24;57.44;94133.69;4207557;28;20547;-76
2023/10/20 08:22:50;;;;;;;16.17;10.15;;;;;;;17.10;56.58;94133.78;4199131;28;20492;-73
2023/10/20 08:24:53;;;;;;;13.38;9.20;;;;;;;16.80;57.80;94146.78;4211168;28;20048;-73
2023/10/20 08:26:55;;;;;;;21.45;10.57;;;;;;;16.65;57.97;94138.22;4205688;28;20098;-76
2023/10/20 08:28:59;;;;;;;14.05;10.05;;;;;;;16.52;58.49;94145.22;4180263;28;20068;-75
2023/10/20 08:31:08;;;;;;;14.60;10.45;;;;;;;16.54;58.41;94143.19;4212941;28;20048;-74
2023/10/20 08:33:10;;;;;;;13.15;9.95;;;;;;;16.64;58.13;94139.28;4192238;28;20044;-73
2023/10/20 08:35:14;;;;;;;14.40;10.60;;;;;;;16.54;58.15;94131.78;4193794;28;20513;-73
2023/10/20 08:37:17;;;;;;;15.80;10.35;;;;;;;16.62;58.31;94133.38;4195899;28;20048;-73
2023/10/20 08:39:20;;;;;;;14.75;10.75;;;;;;;16.54;58.32;94122.03;4212186;28;20052;-74
2023/10/20 08:41:24;;;;;;;17.50;10.85;;;;;;;16.79;58.13;94116.81;4178354;28;20512;-75
2023/10/20 08:43:29;;;;;;;21.98;10.65;;;;;;;17.15;57.56;94119.91;4193563;28;20111;-74
2023/10/20 08:45:34;;;;;;;24.25;10.35;;;;;;;16.90;57.44;94115.34;4213691;28;20453;-75
2023/10/20 08:47:46;;;;;;;15.48;10.07;;;;;;;16.92;57.23;94112.50;4196150;28;20110;-73
2023/10/20 08:49:48;;;;;;;18.98;10.60;;;;;;;16.97;57.36;94117.97;4183287;28;20083;-74
2023/10/20 08:51:52;;;;;;;17.10;11.05;;;;;;;17.33;56.73;94121.81;4213157;28;20052;-75
2023/10/20 08:53:54;;;;;;;16.15;11.52;;;;;;;17.16;56.53;94113.56;4194575;28;20049;-75
2023/10/20 08:55:56;;;;;;;18.95;11.80;;;;;;;17.19;56.32;94119.25;4211929;28;20052;-74
2023/10/20 08:58:01;;;;;;;18.05;12.07;;;;;;;17.24;56.28;94120.47;4196122;28;20052;-74
2023/10/20 09:00:07;;;;;;;16.30;12.15;;;;;;;17.56;56.12;94114.09;4194357;28;20460;-74
2023/10/20 09:02:09;;;;;;;19.02;11.73;;;;;;;17.94;55.23;94115.00;4197075;28;20527;-75
2023/10/20 09:04:23;;;;;;;21.53;11.47;;;;;;;18.21;54.41;94118.22;4200627;28;20044;-74
2023/10/20 09:06:26;;;;;;;18.35;11.52;;;;;;;18.05;54.17;94121.44;4173765;28;20345;-73
2023/10/20 09:08:28;;;;;;;15.02;10.63;;;;;;;18.07;53.99;94114.91;4198965;28;20048;-76
2023/10/20 09:10:30;;;;;;;16.48;10.60;;;;;;;18.05;53.70;94116.97;4212354;28;20052;-77
2023/10/20 09:12:32;;;;;;;18.40;10.68;;;;;;;18.11;53.92;94113.44;4195279;28;20135;-76
2023/10/20 09:14:39;;;;;;;21.02;12.77;;;;;;;18.17;54.03;94124.97;4178439;28;20421;-74
2023/10/20 09:16:42;;;;;;;21.85;12.43;;;;;;;18.03;53.87;94111.06;4209599;28;20083;-73
2023/10/20 09:18:53;;;;;;;22.45;12.25;;;;;;;17.71;54.86;94102.38;4211018;28;20047;-73
2023/10/20 09:21:05;;;;;;;24.52;12.02;;;;;;;17.81;55.12;94100.03;4195084;28;20106;-74
2023/10/20 09:23:10;;;;;;;20.10;16.10;;;;;;;17.87;54.96;94093.88;4208496;28;20079;-73
2023/10/20 09:25:15;;;;;;;22.45;12.88;;;;;;;17.95;54.79;94098.09;4212875;28;20055;-74
2023/10/20 09:27:17;;;;;;;20.10;11.65;;;;;;;18.04;54.83;94096.78;4210789;28;20550;-75
2023/10/20 09:29:21;;;;;;;21.30;11.90;;;;;;;18.09;54.52;94082.84;4193834;28;20087;-75
2023/10/20 09:31:24;;;;;;;23.88;11.80;;;;;;;18.10;54.33;94085.28;4194308;28;20478;-74
2023/10/20 09:33:26;;;;;;;17.30;10.82;;;;;;;17.96;54.32;94076.69;4202055;28;20135;-74
2023/10/20 09:35:30;;;;;;;14.60;10.48;;;;;;;17.88;54.81;94071.66;4199954;28;20497;-71
2023/10/20 09:37:39;;;;;;;23.75;10.93;;;;;;;18.01;54.82;94068.88;4194687;28;20045;-75
2023/10/20 09:39:43;;;;;;;17.35;10.82;;;;;;;18.32;54.37;94064.44;4206501;28;20044;-75
2023/10/20 09:41:50;;;;;;;20.33;10.75;;;;;;;18.28;53.86;94067.75;4192443;28;20135;-73
2023/10/20 09:44:02;;;;;;;19.17;10.27;;;;;;;18.06;54.33;94054.16;4206123;28;20086;-73
2023/10/20 09:46:19;;;;;;;18.25;10.02;;;;;;;18.09;54.86;94057.19;4216187;28;20040;-73
2023/10/20 09:48:25;;;;;;;17.77;9.48;;;;;;;18.36;54.27;94056.88;4212116;28;20079;-74
2023/10/20 09:50:31;;;;;;;14.75;9.27;;;;;;;18.47;53.47;94065.91;4197870;28;20131;-74
2023/10/20 09:52:34;;;;;;;20.92;10.27;;;;;;;18.65;53.35;94055.28;4181853;28;20053;-74
2023/10/20 09:54:37;;;;;;;18.05;9.82;;;;;;;18.89;53.08;94044.78;4198266;28;20463;-74
2023/10/20 09:56:42;;;;;;;16.98;9.10;;;;;;;19.08;52.61;94061.44;4198412;28;20062;-75
2023/10/20 09:58:44;;;;;;;15.05;8.60;;;;;;;19.19;51.99;94058.81;4194148;28;20056;-76
2023/10/20 10:00:47;;;;;;;16.35;8.95;;;;;;;19.34;51.54;94061.03;4180984;28;20052;-76
2023/10/20 10:02:56;;;;;;;18.90;10.52;;;;;;;19.04;51.77;94058.44;4198601;28;20432;-74
2023/10/20 10:04:59;;;;;;;20.13;9.15;;;;;;;19.14;52.17;94047.25;4215998;28;20493;-78